createdAt,value
2019-01-16T00:00:25.756Z,1008.98
2019-01-16T00:01:25.766Z,1008.99
2019-01-16T00:02:25.745Z,1008.93
2019-01-16T00:03:25.724Z,1008.98
2019-01-16T00:04:25.714Z,1008.94
2019-01-16T00:05:25.701Z,1008.88
2019-01-16T00:06:25.709Z,1008.92
2019-01-16T00:07:25.682Z,1008.90
2019-01-16T00:08:25.669Z,1008.91
2019-01-16T00:09:25.683Z,1008.87
2019-01-16T00:10:25.649Z,1008.88
2019-01-16T00:11:25.665Z,1008.87
2019-01-16T00:12:25.624Z,1008.83
2019-01-16T00:13:25.614Z,1008.85
2019-01-16T00:14:25.606Z,1008.86
2019-01-16T00:15:25.592Z,1008.88
2019-01-16T00:16:25.587Z,1008.84
2019-01-16T00:17:25.591Z,1008.86
2019-01-16T00:18:25.559Z,1008.86
2019-01-16T00:19:25.549Z,1008.83
2019-01-16T00:20:25.540Z,1008.79
2019-01-16T00:21:25.527Z,1008.77
2019-01-16T00:22:25.543Z,1008.84
2019-01-16T00:23:25.504Z,1008.76
2019-01-16T00:24:25.495Z,1008.81
2019-01-16T00:25:25.484Z,1008.80
2019-01-16T00:26:25.477Z,1008.74
2019-01-16T00:27:25.482Z,1008.75
2019-01-16T00:28:25.451Z,1008.73
2019-01-16T00:29:25.444Z,1008.71
2019-01-16T00:30:25.428Z,1008.68
2019-01-16T00:31:25.417Z,1008.66
2019-01-16T00:32:25.426Z,1008.65
2019-01-16T00:33:25.395Z,1008.68
2019-01-16T00:34:25.384Z,1008.67
2019-01-16T00:35:25.373Z,1008.58
2019-01-16T00:36:25.364Z,1008.60
2019-01-16T00:37:25.387Z,1008.55
2019-01-16T00:38:25.339Z,1008.57
2019-01-16T00:39:25.328Z,1008.58
2019-01-16T00:40:25.317Z,1008.57
2019-01-16T00:41:25.307Z,1008.61
2019-01-16T00:42:25.297Z,1008.64
2019-01-16T00:43:25.304Z,1008.56
2019-01-16T00:44:25.272Z,1008.60
2019-01-16T00:45:25.262Z,1008.56
2019-01-16T00:46:25.251Z,1008.58
2019-01-16T00:47:25.240Z,1008.58
2019-01-16T00:48:25.249Z,1008.55
2019-01-16T00:49:25.219Z,1008.54
2019-01-16T00:50:25.208Z,1008.48
2019-01-16T00:51:25.200Z,1008.48
2019-01-16T00:52:25.188Z,1008.46
2019-01-16T00:53:25.200Z,1008.49
2019-01-16T00:54:25.163Z,1008.43
2019-01-16T00:55:25.156Z,1008.46
2019-01-16T00:56:25.141Z,1008.46
2019-01-16T00:57:25.131Z,1008.47
2019-01-16T00:58:25.140Z,1008.45
2019-01-16T00:59:25.158Z,1008.40
2019-01-16T01:00:25.098Z,1008.42
2019-01-16T01:01:25.093Z,1008.44
2019-01-16T01:02:25.083Z,1008.47
2019-01-16T01:03:25.085Z,1008.45
2019-01-16T01:04:25.053Z,1008.46
2019-01-16T01:05:25.051Z,1008.47
2019-01-16T01:06:25.032Z,1008.47
2019-01-16T01:07:25.021Z,1008.47
2019-01-16T01:08:25.034Z,1008.44
2019-01-16T01:09:24.999Z,1008.44
2019-01-16T01:10:24.992Z,1008.44
2019-01-16T01:11:24.978Z,1008.44
2019-01-16T01:12:24.970Z,1008.40
2019-01-16T01:13:24.978Z,1008.47
2019-01-16T01:14:24.948Z,1008.46
2019-01-16T01:15:24.932Z,1008.44
2019-01-16T01:16:24.921Z,1008.50
2019-01-16T01:17:24.913Z,1008.45
2019-01-16T01:18:32.060Z,1008.48
2019-01-16T01:19:24.892Z,1008.47
2019-01-16T01:20:24.880Z,1008.47
2019-01-16T01:21:24.866Z,1008.44
2019-01-16T01:22:24.859Z,1008.43
2019-01-16T01:23:24.874Z,1008.43
2019-01-16T01:24:24.847Z,1008.38
2019-01-16T01:25:24.824Z,1008.36
2019-01-16T01:26:24.835Z,1008.29
2019-01-16T01:27:24.801Z,1008.32
2019-01-16T01:28:24.789Z,1008.31
2019-01-16T01:29:24.798Z,1008.32
2019-01-16T01:30:24.768Z,1008.29
2019-01-16T01:31:24.758Z,1008.27
2019-01-16T01:32:24.746Z,1008.33
2019-01-16T01:33:24.737Z,1008.33
2019-01-16T01:34:24.746Z,1008.38
2019-01-16T01:35:24.716Z,1008.27
2019-01-16T01:36:24.704Z,1008.27
2019-01-16T01:37:24.691Z,1008.30
2019-01-16T01:38:24.683Z,1008.32
2019-01-16T01:39:24.689Z,1008.28
2019-01-16T01:40:24.665Z,1008.35
2019-01-16T01:41:24.647Z,1008.35
2019-01-16T01:42:24.636Z,1008.33
2019-01-16T01:43:24.630Z,1008.39
2019-01-16T01:44:24.634Z,1008.36
2019-01-16T01:45:24.606Z,1008.41
2019-01-16T01:46:24.595Z,1008.38
2019-01-16T01:47:24.589Z,1008.39
2019-01-16T01:48:24.570Z,1008.35
2019-01-16T01:49:24.579Z,1008.35
2019-01-16T01:50:24.549Z,1008.29
2019-01-16T01:51:24.539Z,1008.35
2019-01-16T01:52:24.528Z,1008.31
2019-01-16T01:53:24.516Z,1008.33
2019-01-16T01:54:24.553Z,1008.30
2019-01-16T01:55:24.496Z,1008.32
2019-01-16T01:56:24.482Z,1008.34
2019-01-16T01:57:24.484Z,1008.25
2019-01-16T01:58:24.470Z,1008.28
2019-01-16T01:59:24.454Z,1008.30
2019-01-16T02:00:24.466Z,1008.27
2019-01-16T02:01:24.432Z,1008.27
2019-01-16T02:02:24.416Z,1008.29
2019-01-16T02:03:24.406Z,1008.28
2019-01-16T02:04:24.398Z,1008.30
2019-01-16T02:05:24.406Z,1008.31
2019-01-16T02:06:24.375Z,1008.27
2019-01-16T02:07:24.361Z,1008.29
2019-01-16T02:08:24.357Z,1008.26
2019-01-16T02:09:24.344Z,1008.29
2019-01-16T02:10:24.356Z,1008.27
2019-01-16T02:11:24.334Z,1008.25
2019-01-16T02:12:24.307Z,1008.26
2019-01-16T02:13:24.296Z,1008.28
2019-01-16T02:14:24.285Z,1008.26
2019-01-16T02:15:24.295Z,1008.28
2019-01-16T02:16:24.263Z,1008.26
2019-01-16T02:17:24.254Z,1008.22
2019-01-16T02:18:24.243Z,1008.25
2019-01-16T02:19:24.229Z,1008.26
2019-01-16T02:20:24.243Z,1008.21
2019-01-16T02:21:24.213Z,1008.21
2019-01-16T02:22:24.206Z,1008.20
2019-01-16T02:23:24.186Z,1008.17
2019-01-16T02:24:24.174Z,1008.19
2019-01-16T02:25:24.183Z,1008.16
2019-01-16T02:26:24.152Z,1008.14
2019-01-16T02:27:24.202Z,1008.14
2019-01-16T02:28:24.138Z,1008.17
2019-01-16T02:29:24.122Z,1008.17
2019-01-16T02:30:24.128Z,1008.15
2019-01-16T02:31:24.099Z,1008.16
2019-01-16T02:32:24.092Z,1008.16
2019-01-16T02:33:24.078Z,1008.13
2019-01-16T02:34:24.067Z,1008.15
2019-01-16T02:35:24.099Z,1008.14
2019-01-16T02:36:24.043Z,1008.14
2019-01-16T02:37:24.033Z,1008.13
2019-01-16T02:38:24.020Z,1008.16
2019-01-16T02:39:24.009Z,1008.13
2019-01-16T02:40:24.001Z,1008.16
2019-01-16T02:41:24.009Z,1008.14
2019-01-16T02:42:23.987Z,1008.14
2019-01-16T02:43:23.968Z,1008.15
2019-01-16T02:44:23.958Z,1008.10
2019-01-16T02:45:23.947Z,1008.09
2019-01-16T02:46:23.952Z,1008.13
2019-01-16T02:47:23.927Z,1008.10
2019-01-16T02:48:23.910Z,1008.08
2019-01-16T02:49:23.899Z,1008.09
2019-01-16T02:50:23.888Z,1008.05
2019-01-16T02:51:23.897Z,1008.03
2019-01-16T02:52:23.868Z,1008.04
2019-01-16T02:53:23.856Z,1008.02
2019-01-16T02:54:23.844Z,1008.04
2019-01-16T02:55:23.838Z,1008.02
2019-01-16T02:56:23.843Z,1008.06
2019-01-16T02:57:23.812Z,1008.02
2019-01-16T02:58:23.801Z,1007.99
2019-01-16T02:59:23.791Z,1007.99
2019-01-16T03:00:23.778Z,1007.97
2019-01-16T03:01:23.788Z,1007.92
2019-01-16T03:02:23.758Z,1007.89
2019-01-16T03:03:23.750Z,1007.89
2019-01-16T03:04:23.734Z,1007.87
2019-01-16T03:05:23.723Z,1007.91
2019-01-16T03:06:23.739Z,1007.84
2019-01-16T03:07:23.702Z,1007.87
2019-01-16T03:08:23.692Z,1007.81
2019-01-16T03:09:23.680Z,1007.86
2019-01-16T03:10:23.668Z,1007.78
2019-01-16T03:11:23.657Z,1007.79
2019-01-16T03:12:23.669Z,1007.77
2019-01-16T03:13:23.638Z,1007.80
2019-01-16T03:14:23.627Z,1007.75
2019-01-16T03:15:23.618Z,1007.72
2019-01-16T03:16:23.604Z,1007.75
2019-01-16T03:17:23.617Z,1007.72
2019-01-16T03:18:23.581Z,1007.74
2019-01-16T03:19:23.570Z,1007.73
2019-01-16T03:20:23.566Z,1007.75
2019-01-16T03:21:23.551Z,1007.69
2019-01-16T03:22:23.559Z,1007.71
2019-01-16T03:23:23.529Z,1007.68
2019-01-16T03:24:23.517Z,1007.67
2019-01-16T03:25:23.505Z,1007.70
2019-01-16T03:26:23.495Z,1007.67
2019-01-16T03:27:23.504Z,1007.65
2019-01-16T03:28:23.471Z,1007.66
2019-01-16T03:29:23.461Z,1007.65
2019-01-16T03:30:23.450Z,1007.62
2019-01-16T03:31:23.447Z,1007.63
2019-01-16T03:32:23.450Z,1007.65
2019-01-16T03:33:23.421Z,1007.64
2019-01-16T03:34:23.406Z,1007.61
2019-01-16T03:35:23.395Z,1007.65
2019-01-16T03:36:23.383Z,1007.63
2019-01-16T03:37:23.394Z,1007.59
2019-01-16T03:38:23.362Z,1007.58
2019-01-16T03:39:23.352Z,1007.53
2019-01-16T03:40:23.342Z,1007.52
2019-01-16T03:41:23.332Z,1007.54
2019-01-16T03:42:23.349Z,1007.46
2019-01-16T03:43:23.308Z,1007.50
2019-01-16T03:44:23.296Z,1007.50
2019-01-16T03:45:23.285Z,1007.50
2019-01-16T03:46:23.273Z,1007.51
2019-01-16T03:47:23.293Z,1007.48
2019-01-16T03:48:23.255Z,1007.52
2019-01-16T03:49:23.243Z,1007.51
2019-01-16T03:50:23.232Z,1007.48
2019-01-16T03:51:23.221Z,1007.46
2019-01-16T03:52:23.211Z,1007.43
2019-01-16T03:53:23.222Z,1007.41
2019-01-16T03:54:23.187Z,1007.41
2019-01-16T03:55:23.178Z,1007.36
2019-01-16T03:56:23.167Z,1007.39
2019-01-16T03:57:23.156Z,1007.38
2019-01-16T03:58:23.162Z,1007.38
2019-01-16T03:59:23.131Z,1007.32
2019-01-16T04:00:23.128Z,1007.33
2019-01-16T04:01:23.109Z,1007.32
2019-01-16T04:02:23.100Z,1007.27
2019-01-16T04:03:23.106Z,1007.27
2019-01-16T04:04:23.077Z,1007.22
2019-01-16T04:05:23.065Z,1007.22
2019-01-16T04:06:23.055Z,1007.23
2019-01-16T04:07:23.044Z,1007.21
2019-01-16T04:08:23.073Z,1007.21
2019-01-16T04:09:23.022Z,1007.25
2019-01-16T04:10:23.012Z,1007.22
2019-01-16T04:11:23.011Z,1007.19
2019-01-16T04:12:22.988Z,1007.16
2019-01-16T04:13:22.978Z,1007.09
2019-01-16T04:14:22.991Z,1007.07
2019-01-16T04:15:22.956Z,1007.09
2019-01-16T04:16:22.949Z,1007.08
2019-01-16T04:17:24.950Z,1007.09
2019-01-16T04:18:22.922Z,1007.07
2019-01-16T04:19:22.931Z,1007.05
2019-01-16T04:20:22.903Z,1007.01
2019-01-16T04:21:22.890Z,1007.05
2019-01-16T04:22:22.878Z,1007.06
2019-01-16T04:23:22.870Z,1006.98
2019-01-16T04:24:22.878Z,1006.99
2019-01-16T04:25:22.846Z,1006.90
2019-01-16T04:26:22.836Z,1006.91
2019-01-16T04:27:22.824Z,1006.92
2019-01-16T04:28:22.813Z,1006.87
2019-01-16T04:29:22.832Z,1006.88
2019-01-16T04:30:22.792Z,1006.86
2019-01-16T04:31:22.783Z,1006.88
2019-01-16T04:32:22.770Z,1006.86
2019-01-16T04:33:22.760Z,1006.85
2019-01-16T04:34:22.776Z,1006.81
2019-01-16T04:35:22.736Z,1006.77
2019-01-16T04:36:22.725Z,1006.74
2019-01-16T04:37:22.723Z,1006.75
2019-01-16T04:38:22.706Z,1006.71
2019-01-16T04:39:22.692Z,1006.74
2019-01-16T04:40:22.700Z,1006.75
2019-01-16T04:41:22.673Z,1006.75
2019-01-16T04:42:22.659Z,1006.73
2019-01-16T04:43:22.648Z,1006.70
2019-01-16T04:44:22.641Z,1006.75
2019-01-16T04:45:22.650Z,1006.73
2019-01-16T04:46:22.616Z,1006.69
2019-01-16T04:47:22.608Z,1006.69
2019-01-16T04:48:22.597Z,1006.72
2019-01-16T04:49:30.008Z,1006.68
2019-01-16T04:50:22.594Z,1006.66
2019-01-16T04:51:22.561Z,1006.67
2019-01-16T04:52:22.549Z,1006.65
2019-01-16T04:53:22.545Z,1006.68
2019-01-16T04:54:22.531Z,1006.67
2019-01-16T04:55:22.544Z,1006.69
2019-01-16T04:56:22.506Z,1006.68
2019-01-16T04:57:22.496Z,1006.69
2019-01-16T04:58:22.486Z,1006.66
2019-01-16T04:59:22.473Z,1006.65
2019-01-16T05:00:22.482Z,1006.63
2019-01-16T05:01:22.454Z,1006.68
2019-01-16T05:02:22.447Z,1006.61
2019-01-16T05:03:22.434Z,1006.65
2019-01-16T05:04:22.419Z,1006.61
2019-01-16T05:05:22.430Z,1006.60
2019-01-16T05:06:22.399Z,1006.56
2019-01-16T05:07:22.389Z,1006.55
2019-01-16T05:08:22.376Z,1006.53
2019-01-16T05:09:22.366Z,1006.47
2019-01-16T05:10:22.386Z,1006.48
2019-01-16T05:11:22.343Z,1006.51
2019-01-16T05:12:22.335Z,1006.45
2019-01-16T05:13:22.320Z,1006.45
2019-01-16T05:14:22.308Z,1006.47
2019-01-16T05:15:22.300Z,1006.45
2019-01-16T05:16:22.306Z,1006.46
2019-01-16T05:17:22.278Z,1006.42
2019-01-16T05:18:22.265Z,1006.44
2019-01-16T05:19:22.255Z,1006.45
2019-01-16T05:20:22.245Z,1006.44
2019-01-16T05:21:22.255Z,1006.44
2019-01-16T05:22:22.224Z,1006.43
2019-01-16T05:23:22.210Z,1006.44
2019-01-16T05:24:22.200Z,1006.45
2019-01-16T05:25:22.187Z,1006.42
2019-01-16T05:26:22.196Z,1006.47
2019-01-16T05:27:22.168Z,1006.43
2019-01-16T05:28:22.157Z,1006.47
2019-01-16T05:29:22.144Z,1006.37
2019-01-16T05:30:22.133Z,1006.34
2019-01-16T05:31:22.142Z,1006.33
2019-01-16T05:32:22.111Z,1006.30
2019-01-16T05:33:22.100Z,1006.30
2019-01-16T05:34:22.091Z,1006.31
2019-01-16T05:35:22.077Z,1006.33
2019-01-16T05:36:31.388Z,1006.38
2019-01-16T05:37:22.058Z,1006.38
2019-01-16T05:38:22.049Z,1006.33
2019-01-16T05:39:22.044Z,1006.34
2019-01-16T05:40:22.026Z,1006.31
2019-01-16T05:41:22.032Z,1006.36
2019-01-16T05:42:22.000Z,1006.24
2019-01-16T05:43:21.991Z,1006.27
2019-01-16T05:44:21.979Z,1006.26
2019-01-16T05:45:21.968Z,1006.26
2019-01-16T05:46:21.989Z,1006.25
2019-01-16T05:47:22.006Z,1006.24
2019-01-16T05:48:21.935Z,1006.24
2019-01-16T05:49:21.923Z,1006.21
2019-01-16T05:50:21.914Z,1006.22
2019-01-16T05:51:21.902Z,1006.19
2019-01-16T05:52:21.973Z,1006.16
2019-01-16T05:53:21.882Z,1006.21
2019-01-16T05:54:21.871Z,1006.22
2019-01-16T05:55:21.859Z,1006.16
2019-01-16T05:56:21.850Z,1006.16
2019-01-16T05:57:21.862Z,1006.15
2019-01-16T05:58:21.824Z,1006.14
2019-01-16T05:59:21.813Z,1006.14
2019-01-16T06:00:21.803Z,1006.18
2019-01-16T06:01:21.793Z,1006.20
2019-01-16T06:02:21.802Z,1006.17
2019-01-16T06:03:21.776Z,1006.13
2019-01-16T06:04:21.759Z,1006.12
2019-01-16T06:05:21.748Z,1006.24
2019-01-16T06:06:21.739Z,1006.15
2019-01-16T06:07:21.747Z,1006.27
2019-01-16T06:08:21.716Z,1006.20
2019-01-16T06:09:21.749Z,1006.21
2019-01-16T06:10:21.694Z,1006.16
2019-01-16T06:11:21.686Z,1006.19
2019-01-16T06:12:21.690Z,1006.17
2019-01-16T06:13:21.661Z,1006.19
2019-01-16T06:14:21.650Z,1006.21
2019-01-16T06:15:21.651Z,1006.24
2019-01-16T06:16:21.630Z,1006.19
2019-01-16T06:17:21.658Z,1006.22
2019-01-16T06:18:21.623Z,1006.17
2019-01-16T06:19:21.596Z,1006.18
2019-01-16T06:20:21.584Z,1006.19
2019-01-16T06:21:21.576Z,1006.20
2019-01-16T06:22:21.562Z,1006.19
2019-01-16T06:23:21.572Z,1006.22
2019-01-16T06:24:21.541Z,1006.19
2019-01-16T06:25:21.532Z,1006.20
2019-01-16T06:26:21.518Z,1006.20
2019-01-16T06:27:21.513Z,1006.21
2019-01-16T06:28:21.517Z,1006.23
2019-01-16T06:29:21.486Z,1006.28
2019-01-16T06:30:21.474Z,1006.22
2019-01-16T06:31:21.463Z,1006.22
2019-01-16T06:32:21.457Z,1006.21
2019-01-16T06:33:21.471Z,1006.21
2019-01-16T06:34:21.430Z,1006.21
2019-01-16T06:35:21.425Z,1006.25
2019-01-16T06:36:21.414Z,1006.19
2019-01-16T06:37:21.402Z,1006.20
2019-01-16T06:38:21.407Z,1006.23
2019-01-16T06:39:21.375Z,1006.24
2019-01-16T06:40:21.391Z,1006.20
2019-01-16T06:41:21.354Z,1006.15
2019-01-16T06:42:21.342Z,1006.15
2019-01-16T06:43:21.354Z,1006.12
2019-01-16T06:44:21.321Z,1006.15
2019-01-16T06:45:21.311Z,1006.13
2019-01-16T06:46:21.300Z,1006.15
2019-01-16T06:47:21.290Z,1006.17
2019-01-16T06:48:21.312Z,1006.16
2019-01-16T06:49:21.267Z,1006.21
2019-01-16T06:50:21.255Z,1006.13
2019-01-16T06:51:21.432Z,1006.12
2019-01-16T06:52:21.235Z,1006.15
2019-01-16T06:53:21.221Z,1006.14
2019-01-16T06:54:21.230Z,1006.15
2019-01-16T06:55:21.199Z,1006.18
2019-01-16T06:56:21.189Z,1006.21
2019-01-16T06:57:21.177Z,1006.09
2019-01-16T06:58:21.166Z,1006.09
2019-01-16T06:59:21.183Z,1006.11
2019-01-16T07:00:21.146Z,1006.08
2019-01-16T07:01:21.135Z,1006.06
2019-01-16T07:02:21.129Z,1006.06
2019-01-16T07:03:21.116Z,1006.18
2019-01-16T07:04:21.129Z,1006.07
2019-01-16T07:05:21.094Z,1006.13
2019-01-16T07:06:21.082Z,1006.16
2019-01-16T07:07:21.071Z,1006.07
2019-01-16T07:08:21.057Z,1006.09
2019-01-16T07:09:21.067Z,1006.14
2019-01-16T07:10:21.035Z,1006.05
2019-01-16T07:11:21.023Z,1006.08
2019-01-16T07:12:21.013Z,1006.04
2019-01-16T07:13:21.003Z,1006.03
2019-01-16T07:14:21.013Z,1006.03
2019-01-16T07:15:20.980Z,1006.04
2019-01-16T07:16:20.972Z,1006.09
2019-01-16T07:17:20.958Z,1006.05
2019-01-16T07:18:20.949Z,1006.06
2019-01-16T07:19:20.957Z,1006.11
2019-01-16T07:20:20.926Z,1006.13
2019-01-16T07:21:20.915Z,1006.12
2019-01-16T07:22:20.903Z,1006.09
2019-01-16T07:23:20.893Z,1006.10
2019-01-16T07:24:20.939Z,1006.14
2019-01-16T07:25:20.874Z,1006.12
2019-01-16T07:26:20.863Z,1006.13
2019-01-16T07:27:20.848Z,1006.11
2019-01-16T07:28:20.846Z,1006.14
2019-01-16T07:29:20.829Z,1006.09
2019-01-16T07:30:20.835Z,1006.13
2019-01-16T07:31:20.805Z,1006.08
2019-01-16T07:32:20.798Z,1006.06
2019-01-16T07:33:20.787Z,1006.02
2019-01-16T07:34:20.774Z,1006.05
2019-01-16T07:35:20.782Z,1005.99
2019-01-16T07:36:20.750Z,1005.94
2019-01-16T07:37:20.740Z,1006.01
2019-01-16T07:38:20.735Z,1006.05
2019-01-16T07:39:20.720Z,1005.96
2019-01-16T07:40:20.726Z,1005.95
2019-01-16T07:41:20.695Z,1005.95
2019-01-16T07:42:20.687Z,1005.92
2019-01-16T07:43:20.676Z,1005.97
2019-01-16T07:44:20.662Z,1005.97
2019-01-16T07:45:20.671Z,1005.99
2019-01-16T07:46:20.639Z,1005.98
2019-01-16T07:47:20.628Z,1005.94
2019-01-16T07:48:20.627Z,1005.99
2019-01-16T07:49:20.608Z,1005.99
2019-01-16T07:50:20.616Z,1006.01
2019-01-16T07:51:20.586Z,1006.02
2019-01-16T07:52:20.574Z,1005.99
2019-01-16T07:53:20.563Z,1006.04
2019-01-16T07:54:20.558Z,1006.05
2019-01-16T07:55:20.560Z,1006.03
2019-01-16T07:56:20.530Z,1006.09
2019-01-16T07:57:20.520Z,1006.11
2019-01-16T07:58:20.508Z,1006.11
2019-01-16T08:00:13.722Z,1006.11
2019-01-16T08:01:13.690Z,1006.12
2019-01-16T08:02:13.681Z,1006.10
2019-01-16T08:03:13.673Z,1006.07
2019-01-16T08:04:13.657Z,1006.04
2019-01-16T08:05:22.928Z,1006.04
2019-01-16T08:06:13.653Z,1006.08
2019-01-16T08:07:13.625Z,1006.03
2019-01-16T08:08:13.613Z,1006.03
2019-01-16T08:09:13.689Z,1006.02
2019-01-16T08:10:13.627Z,1005.98
2019-01-16T08:11:13.580Z,1005.97
2019-01-16T08:12:13.577Z,1005.99
2019-01-16T08:13:13.560Z,1006.02
2019-01-16T08:14:13.546Z,1006.06
2019-01-16T08:15:13.537Z,1006.05
2019-01-16T08:16:13.546Z,1006.05
2019-01-16T08:17:13.517Z,1006.08
2019-01-16T08:18:13.504Z,1006.10
2019-01-16T08:19:13.492Z,1006.05
2019-01-16T08:20:13.481Z,1006.05
2019-01-16T08:21:13.492Z,1006.03
2019-01-16T08:22:13.460Z,1006.06
2019-01-16T08:23:13.452Z,1005.99
2019-01-16T08:24:13.437Z,1005.94
2019-01-16T08:25:13.427Z,1005.92
2019-01-16T08:26:13.442Z,1005.92
2019-01-16T08:27:13.406Z,1005.97
2019-01-16T08:28:13.396Z,1005.96
2019-01-16T08:29:13.384Z,1006.00
2019-01-16T08:30:13.376Z,1006.02
2019-01-16T08:31:13.379Z,1006.05
2019-01-16T08:32:13.352Z,1006.06
2019-01-16T08:33:13.341Z,1006.08
2019-01-16T08:34:13.333Z,1006.09
2019-01-16T08:35:13.317Z,1006.08
2019-01-16T08:36:13.327Z,1006.11
2019-01-16T08:37:13.303Z,1006.10
2019-01-16T08:38:13.284Z,1006.13
2019-01-16T08:39:13.273Z,1006.11
2019-01-16T08:40:13.322Z,1006.13
2019-01-16T08:41:13.273Z,1006.05
2019-01-16T08:42:13.241Z,1006.10
2019-01-16T08:43:13.228Z,1006.05
2019-01-16T08:44:13.850Z,1006.10
2019-01-16T08:45:13.214Z,1006.13
2019-01-16T08:46:13.263Z,1006.13
2019-01-16T08:47:13.198Z,1006.14
2019-01-16T08:48:13.176Z,1006.12
2019-01-16T08:49:13.180Z,1006.12
2019-01-16T08:50:13.159Z,1006.13
2019-01-16T08:51:13.141Z,1006.09
2019-01-16T08:52:13.153Z,1006.14
2019-01-16T08:53:13.121Z,1006.14
2019-01-16T08:54:13.110Z,1006.12
2019-01-16T08:55:13.097Z,1006.09
2019-01-16T08:56:13.086Z,1006.11
2019-01-16T08:57:13.098Z,1006.07
2019-01-16T08:58:13.068Z,1006.07
2019-01-16T08:59:13.056Z,1006.13
2019-01-16T09:00:13.043Z,1006.07
2019-01-16T09:01:13.035Z,1006.12
2019-01-16T09:02:13.043Z,1006.07
2019-01-16T09:03:13.011Z,1006.08
2019-01-16T09:04:12.999Z,1006.08
2019-01-16T09:05:12.989Z,1006.07
2019-01-16T09:06:12.979Z,1006.07
2019-01-16T09:07:12.996Z,1006.05
2019-01-16T09:08:12.958Z,1006.05
2019-01-16T09:09:12.944Z,1006.04
2019-01-16T09:10:12.935Z,1006.06
2019-01-16T09:11:12.923Z,1006.04
2019-01-16T09:12:12.930Z,1005.95
2019-01-16T09:13:12.902Z,1005.94
2019-01-16T09:14:12.905Z,1005.89
2019-01-16T09:15:12.880Z,1005.88
2019-01-16T09:16:12.870Z,1005.92
2019-01-16T09:17:12.890Z,1005.82
2019-01-16T09:18:12.847Z,1005.81
2019-01-16T09:19:12.835Z,1005.84
2019-01-16T09:20:12.823Z,1005.90
2019-01-16T09:21:12.814Z,1005.81
2019-01-16T09:22:12.802Z,1005.82
2019-01-16T09:23:12.811Z,1005.84
2019-01-16T09:24:12.779Z,1005.88
2019-01-16T09:25:12.768Z,1005.88
2019-01-16T09:26:12.758Z,1005.87
2019-01-16T09:27:12.748Z,1005.83
2019-01-16T09:28:12.755Z,1005.83
2019-01-16T09:29:12.724Z,1005.82
2019-01-16T09:30:12.714Z,1005.80
2019-01-16T09:31:12.703Z,1005.81
2019-01-16T09:32:12.723Z,1005.78
2019-01-16T09:33:12.703Z,1005.82
2019-01-16T09:34:12.674Z,1005.82
2019-01-16T09:35:12.660Z,1005.77
2019-01-16T09:36:12.743Z,1005.79
2019-01-16T09:37:12.637Z,1005.81
2019-01-16T09:38:12.648Z,1005.84
2019-01-16T09:39:12.615Z,1005.90
2019-01-16T09:40:12.652Z,1005.90
2019-01-16T09:41:12.591Z,1005.88
2019-01-16T09:42:12.582Z,1005.87
2019-01-16T09:43:12.605Z,1005.81
2019-01-16T09:44:12.559Z,1005.81
2019-01-16T09:45:12.595Z,1005.85
2019-01-16T09:46:12.538Z,1005.86
2019-01-16T09:47:12.528Z,1005.83
2019-01-16T09:48:12.535Z,1005.89
2019-01-16T09:49:12.505Z,1005.88
2019-01-16T09:50:12.493Z,1005.96
2019-01-16T09:51:12.483Z,1005.91
2019-01-16T09:52:12.471Z,1005.89
2019-01-16T09:53:12.508Z,1005.90
2019-01-16T09:54:12.450Z,1005.93
2019-01-16T09:55:12.438Z,1005.87
2019-01-16T09:56:12.430Z,1005.90
2019-01-16T09:57:12.416Z,1005.86
2019-01-16T09:58:12.406Z,1005.85
2019-01-16T09:59:12.413Z,1005.89
2019-01-16T10:00:12.409Z,1005.90
2019-01-16T10:01:12.382Z,1005.87
2019-01-16T10:02:12.362Z,1005.80
2019-01-16T10:03:12.353Z,1005.80
2019-01-16T10:04:12.362Z,1005.77
2019-01-16T10:05:12.329Z,1005.70
2019-01-16T10:06:12.318Z,1005.71
2019-01-16T10:07:12.312Z,1005.69
2019-01-16T10:08:12.302Z,1005.65
2019-01-16T10:09:12.318Z,1005.64
2019-01-16T10:10:12.274Z,1005.60
2019-01-16T10:11:12.262Z,1005.56
2019-01-16T10:12:12.251Z,1005.57
2019-01-16T10:13:12.243Z,1005.53
2019-01-16T10:14:12.251Z,1005.51
2019-01-16T10:15:12.223Z,1005.53
2019-01-16T10:16:12.240Z,1005.48
2019-01-16T10:17:12.199Z,1005.48
2019-01-16T10:18:12.220Z,1005.41
2019-01-16T10:19:12.219Z,1005.40
2019-01-16T10:20:12.164Z,1005.40
2019-01-16T10:21:12.155Z,1005.44
2019-01-16T10:22:12.143Z,1005.40
2019-01-16T10:23:12.131Z,1005.41
2019-01-16T10:24:12.119Z,1005.36
2019-01-16T10:25:12.137Z,1005.35
2019-01-16T10:26:12.098Z,1005.39
2019-01-16T10:27:12.088Z,1005.36
2019-01-16T10:28:12.076Z,1005.36
2019-01-16T10:29:12.064Z,1005.31
2019-01-16T10:30:12.073Z,1005.27
2019-01-16T10:31:12.043Z,1005.23
2019-01-16T10:32:12.034Z,1005.26
2019-01-16T10:33:12.023Z,1005.20
2019-01-16T10:34:12.016Z,1005.18
2019-01-16T10:35:12.020Z,1005.22
2019-01-16T10:36:11.988Z,1005.18
2019-01-16T10:37:11.987Z,1005.14
2019-01-16T10:38:11.971Z,1005.08
2019-01-16T10:39:11.959Z,1005.01
2019-01-16T10:40:11.967Z,1004.94
2019-01-16T10:41:11.975Z,1004.88
2019-01-16T10:42:11.932Z,1004.90
2019-01-16T10:43:11.912Z,1004.86
2019-01-16T10:44:11.900Z,1004.80
2019-01-16T10:45:11.907Z,1004.81
2019-01-16T10:46:11.884Z,1004.84
2019-01-16T10:47:11.870Z,1004.82
2019-01-16T10:48:11.858Z,1004.76
2019-01-16T10:49:11.846Z,1004.71
2019-01-16T10:50:11.863Z,1004.71
2019-01-16T10:51:11.824Z,1004.74
2019-01-16T10:52:11.813Z,1004.68
2019-01-16T10:53:11.803Z,1004.67
2019-01-16T10:54:11.796Z,1004.66
2019-01-16T10:55:11.784Z,1004.66
2019-01-16T10:56:11.789Z,1004.65
2019-01-16T10:57:11.762Z,1004.64
2019-01-16T10:58:11.746Z,1004.59
2019-01-16T10:59:11.736Z,1004.60
2019-01-16T11:00:11.727Z,1004.55
2019-01-16T11:01:11.739Z,1004.58
2019-01-16T11:02:11.705Z,1004.57
2019-01-16T11:03:11.693Z,1004.55
2019-01-16T11:04:11.684Z,1004.55
2019-01-16T11:05:13.302Z,1004.50
2019-01-16T11:06:11.688Z,1004.52
2019-01-16T11:07:11.695Z,1004.53
2019-01-16T11:08:11.639Z,1004.49
2019-01-16T11:09:11.626Z,1004.50
2019-01-16T11:10:11.616Z,1004.51
2019-01-16T11:11:16.045Z,1004.52
2019-01-16T11:12:11.596Z,1004.56
2019-01-16T11:13:11.582Z,1004.56
2019-01-16T11:14:11.575Z,1004.50
2019-01-16T11:15:11.574Z,1004.52
2019-01-16T11:16:11.570Z,1004.50
2019-01-16T11:17:11.539Z,1004.48
2019-01-16T11:18:11.531Z,1004.45
2019-01-16T11:19:11.518Z,1004.49
2019-01-16T11:20:11.507Z,1004.42
2019-01-16T11:21:11.521Z,1004.40
2019-01-16T11:22:11.484Z,1004.43
2019-01-16T11:23:11.476Z,1004.38
2019-01-16T11:24:11.468Z,1004.33
2019-01-16T11:25:11.453Z,1004.30
2019-01-16T11:26:11.474Z,1004.27
2019-01-16T11:27:11.429Z,1004.29
2019-01-16T11:28:11.419Z,1004.26
2019-01-16T11:29:11.408Z,1004.28
2019-01-16T11:30:11.462Z,1004.25
2019-01-16T11:31:11.387Z,1004.25
2019-01-16T11:32:11.395Z,1004.24
2019-01-16T11:33:11.364Z,1004.23
2019-01-16T11:34:11.357Z,1004.19
2019-01-16T11:35:11.345Z,1004.17
2019-01-16T11:36:11.329Z,1004.12
2019-01-16T11:37:11.339Z,1004.13
2019-01-16T11:38:11.309Z,1004.09
2019-01-16T11:39:11.297Z,1004.03
2019-01-16T11:40:11.286Z,1004.00
2019-01-16T11:41:11.279Z,1004.00
2019-01-16T11:42:11.286Z,1003.96
2019-01-16T11:43:11.257Z,1003.95
2019-01-16T11:44:11.246Z,1003.98
2019-01-16T11:45:11.231Z,1003.91
2019-01-16T11:46:11.224Z,1003.91
2019-01-16T11:47:11.230Z,1003.87
2019-01-16T11:48:11.199Z,1003.90
2019-01-16T11:49:11.188Z,1003.85
2019-01-16T11:50:11.177Z,1003.83
2019-01-16T11:51:18.471Z,1003.84
2019-01-16T11:52:12.177Z,1003.83
2019-01-16T11:53:12.227Z,1003.82
2019-01-16T11:54:11.137Z,1003.81
2019-01-16T11:55:11.123Z,1003.76
2019-01-16T11:56:11.117Z,1003.76
2019-01-16T11:57:11.184Z,1003.65
2019-01-16T11:58:11.092Z,1003.69
2019-01-16T11:59:11.078Z,1003.64
2019-01-16T12:00:11.067Z,1003.65
2019-01-16T12:01:11.097Z,1003.62
2019-01-16T12:02:11.081Z,1003.61
2019-01-16T12:03:11.037Z,1003.62
2019-01-16T12:04:11.022Z,1003.58
2019-01-16T12:05:11.016Z,1003.57
2019-01-16T12:06:11.015Z,1003.51